createdAt,value
2023-05-14T00:11:56.657Z,11.20
2023-05-14T00:31:56.657Z,10.97
2023-05-14T00:51:56.668Z,10.79
2023-05-14T01:11:56.655Z,10.64
2023-05-14T01:31:56.660Z,10.53
2023-05-14T01:51:56.643Z,10.55
2023-05-14T02:11:56.571Z,10.58
2023-05-14T02:31:56.753Z,10.61
2023-05-14T02:51:56.569Z,10.59
2023-05-14T03:11:56.563Z,10.66
2023-05-14T03:31:56.599Z,10.65
2023-05-14T03:51:56.576Z,10.73
2023-05-14T04:11:56.571Z,10.65
2023-05-14T04:31:56.470Z,10.71
2023-05-14T04:51:56.483Z,10.64
2023-05-14T05:11:56.462Z,10.66
2023-05-14T05:31:56.465Z,10.59
2023-05-14T05:51:56.459Z,10.63
2023-05-14T06:11:56.466Z,10.74
2023-05-14T06:31:56.466Z,10.78
2023-05-14T06:51:56.361Z,10.80
2023-05-14T07:11:56.364Z,11.00
2023-05-14T07:31:56.370Z,11.14
2023-05-14T07:51:56.369Z,11.30
2023-05-14T08:11:56.375Z,11.35
2023-05-14T08:31:56.380Z,11.82
2023-05-14T08:51:56.299Z,11.85
2023-05-14T09:11:56.285Z,12.19
2023-05-14T09:31:56.273Z,12.23
2023-05-14T09:51:56.390Z,12.48
2023-05-14T10:11:56.309Z,12.68
2023-05-14T10:31:56.169Z,12.71
2023-05-14T10:51:56.167Z,13.18
2023-05-14T11:11:56.173Z,13.16
2023-05-14T11:31:56.185Z,13.68
2023-05-14T11:51:56.187Z,14.10
2023-05-14T12:11:56.199Z,14.72
2023-05-14T12:31:56.090Z,15.96
2023-05-14T12:51:56.097Z,16.47
2023-05-14T13:11:56.003Z,17.97
2023-05-14T13:31:56.010Z,17.45
2023-05-14T13:51:56.210Z,17.05
2023-05-14T14:11:56.036Z,17.33
2023-05-14T14:31:56.046Z,17.43
2023-05-14T14:51:55.951Z,17.69
2023-05-14T15:11:55.894Z,17.56
2023-05-14T15:31:55.883Z,16.12
2023-05-14T15:51:56.020Z,14.37
2023-05-14T16:11:55.807Z,13.31
2023-05-14T16:31:55.854Z,12.54
2023-05-14T16:51:55.818Z,12.38
2023-05-14T17:11:55.843Z,12.20
2023-05-14T17:31:55.724Z,12.19
2023-05-14T17:51:55.787Z,12.10
2023-05-14T18:11:55.745Z,12.13
2023-05-14T18:31:55.829Z,12.13
2023-05-14T18:51:55.810Z,12.14
2023-05-14T19:11:55.661Z,11.95
2023-05-14T19:31:55.768Z,11.60
2023-05-14T19:51:55.827Z,11.50
2023-05-14T20:11:55.660Z,11.48
2023-05-14T20:31:55.804Z,11.44
2023-05-14T20:51:55.643Z,11.41
2023-05-14T21:11:55.785Z,11.41
2023-05-14T21:31:55.641Z,11.36
2023-05-14T21:51:55.582Z,11.20
2023-05-14T22:11:55.526Z,11.04
2023-05-14T22:31:55.650Z,11.05
2023-05-14T22:51:55.532Z,10.99
2023-05-14T23:11:55.538Z,10.93
2023-05-14T23:31:55.602Z,10.94
2023-05-14T23:51:55.416Z,10.93
